createdAt,value
2019-01-11T00:02:08.665Z,18.60
2019-01-11T00:04:36.548Z,17.98
2019-01-11T00:07:04.210Z,18.07
2019-01-11T00:09:32.090Z,19.65
2019-01-11T00:12:00.022Z,17.10
2019-01-11T00:14:27.766Z,14.18
2019-01-11T00:16:55.694Z,12.37
2019-01-11T00:19:23.630Z,15.83
2019-01-11T00:21:52.966Z,16.70
2019-01-11T00:24:20.899Z,15.40
2019-01-11T00:26:49.640Z,17.55
2019-01-11T00:29:17.450Z,17.57
2019-01-11T00:31:46.119Z,15.80
2019-01-11T00:34:14.405Z,16.30
2019-01-11T00:36:43.322Z,14.95
2019-01-11T00:39:11.288Z,17.30
2019-01-11T00:41:40.256Z,16.35
2019-01-11T00:44:07.904Z,14.47
2019-01-11T00:46:36.025Z,15.18
2019-01-11T00:49:04.884Z,16.00
2019-01-11T00:51:32.766Z,17.92
2019-01-11T00:54:00.530Z,20.10
2019-01-11T00:56:28.466Z,12.88
2019-01-11T00:58:56.362Z,16.65
2019-01-11T01:01:24.182Z,17.32
2019-01-11T01:03:51.923Z,16.93
2019-01-11T01:06:19.470Z,19.32
2019-01-11T01:08:48.352Z,12.55
2019-01-11T01:11:16.119Z,12.90
2019-01-11T01:13:43.737Z,14.80
2019-01-11T01:16:11.439Z,13.95
2019-01-11T01:18:39.342Z,17.02
2019-01-11T01:21:07.545Z,19.52
2019-01-11T01:23:35.384Z,19.75
2019-01-11T01:26:03.080Z,15.75
2019-01-11T01:28:30.649Z,16.20
2019-01-11T01:30:58.730Z,18.90
2019-01-11T01:33:26.484Z,16.12
2019-01-11T01:35:55.144Z,15.78
2019-01-11T01:38:23.141Z,17.40
2019-01-11T01:40:50.903Z,17.42
2019-01-11T01:43:18.844Z,17.77
2019-01-11T01:45:47.466Z,16.87
2019-01-11T01:48:15.049Z,16.97
2019-01-11T01:50:44.802Z,13.80
2019-01-11T01:53:12.692Z,11.95
2019-01-11T01:55:40.556Z,15.18
2019-01-11T01:58:08.336Z,12.07
2019-01-11T02:00:37.111Z,16.37
2019-01-11T02:03:05.030Z,15.80
2019-01-11T02:05:32.942Z,15.72
2019-01-11T02:08:00.733Z,16.23
2019-01-11T02:10:28.520Z,18.62
2019-01-11T02:12:56.337Z,14.20
2019-01-11T02:15:24.366Z,16.55
2019-01-11T02:17:55.076Z,18.50
2019-01-11T02:20:22.963Z,19.02
2019-01-11T02:22:51.392Z,17.42
2019-01-11T02:25:19.119Z,17.85
2019-01-11T02:27:48.241Z,16.48
2019-01-11T02:30:20.778Z,17.57
2019-01-11T02:32:53.122Z,20.02
2019-01-11T02:35:18.876Z,17.48
2019-01-11T02:37:49.337Z,15.98
2019-01-11T02:40:17.416Z,27.10
2019-01-11T02:42:48.810Z,18.95
2019-01-11T02:45:19.111Z,19.25
2019-01-11T02:47:47.195Z,16.52
2019-01-11T02:50:15.348Z,17.75
2019-01-11T02:52:43.054Z,18.45
2019-01-11T02:55:11.126Z,19.07
2019-01-11T02:57:39.327Z,20.62
2019-01-11T03:00:11.776Z,18.20
2019-01-11T03:02:40.427Z,18.12
2019-01-11T03:05:09.588Z,17.67
2019-01-11T03:07:37.636Z,21.20
2019-01-11T03:10:08.682Z,18.40
2019-01-11T03:12:38.524Z,18.70
2019-01-11T03:15:06.682Z,21.40
2019-01-11T03:17:34.640Z,20.30
2019-01-11T03:20:02.951Z,20.68
2019-01-11T03:22:30.986Z,18.67
2019-01-11T03:24:58.633Z,19.98
2019-01-11T03:27:26.323Z,17.92
2019-01-11T03:29:55.150Z,21.90
2019-01-11T03:32:22.937Z,19.98
2019-01-11T03:35:12.512Z,18.82
2019-01-11T03:37:40.404Z,20.32
2019-01-11T03:40:09.626Z,19.00
2019-01-11T03:42:37.814Z,17.07
2019-01-11T03:45:08.106Z,17.90
2019-01-11T03:47:36.858Z,21.27
2019-01-11T03:50:06.007Z,16.85
2019-01-11T03:52:34.190Z,16.45
2019-01-11T03:55:02.288Z,18.90
2019-01-11T03:57:31.213Z,19.00
2019-01-11T03:59:59.369Z,18.73
2019-01-11T04:02:27.301Z,20.40
2019-01-11T04:04:55.113Z,24.80
2019-01-11T04:07:23.109Z,20.27
2019-01-11T04:09:50.870Z,21.73
2019-01-11T04:12:19.019Z,18.42
2019-01-11T04:14:46.631Z,19.23
2019-01-11T04:17:14.450Z,20.85
2019-01-11T04:19:42.376Z,21.73
2019-01-11T04:22:18.241Z,15.93
2019-01-11T04:25:09.151Z,14.43
2019-01-11T04:27:38.425Z,21.45
2019-01-11T04:30:26.952Z,17.90
2019-01-11T04:32:54.982Z,20.02
2019-01-11T04:35:23.956Z,19.45
2019-01-11T04:37:51.970Z,22.45
2019-01-11T04:40:20.967Z,17.95
2019-01-11T04:42:51.311Z,19.92
2019-01-11T04:45:19.387Z,24.20
2019-01-11T04:47:48.263Z,18.50
2019-01-11T04:50:19.475Z,20.85
2019-01-11T04:52:48.633Z,18.70
2019-01-11T04:55:16.308Z,20.02
2019-01-11T04:57:44.264Z,23.15
2019-01-11T05:00:15.135Z,20.65
2019-01-11T05:02:42.864Z,20.72
2019-01-11T05:05:12.026Z,19.80
2019-01-11T05:07:39.923Z,20.50
2019-01-11T05:10:09.310Z,20.45
2019-01-11T05:12:36.930Z,24.63
2019-01-11T05:15:05.543Z,22.40
2019-01-11T05:17:33.444Z,20.72
2019-01-11T05:20:01.258Z,19.30
2019-01-11T05:22:29.046Z,15.28
2019-01-11T05:24:56.793Z,19.17
2019-01-11T05:27:24.755Z,19.00
2019-01-11T05:29:55.172Z,17.75
2019-01-11T05:32:23.177Z,17.07
2019-01-11T05:34:52.021Z,18.85
2019-01-11T05:37:20.482Z,24.30
2019-01-11T05:39:51.172Z,16.97
2019-01-11T05:42:18.934Z,19.87
2019-01-11T05:44:52.487Z,18.32
2019-01-11T05:47:20.259Z,19.45
2019-01-11T05:49:49.073Z,23.65
2019-01-11T05:52:16.887Z,19.95
2019-01-11T05:54:45.649Z,21.45
2019-01-11T05:57:14.672Z,18.52
2019-01-11T05:59:42.477Z,18.40
2019-01-11T06:02:10.104Z,22.90
2019-01-11T06:04:45.177Z,16.90
2019-01-11T06:07:24.304Z,17.90
2019-01-11T06:09:52.022Z,18.05
2019-01-11T06:12:19.936Z,19.70
2019-01-11T06:14:47.502Z,16.90
2019-01-11T06:17:15.463Z,19.23
2019-01-11T06:19:43.366Z,18.37
2019-01-11T06:22:11.414Z,18.65
2019-01-11T06:24:41.460Z,23.15
2019-01-11T06:27:10.473Z,24.25
2019-01-11T06:29:38.375Z,19.65
2019-01-11T06:32:06.209Z,25.32
2019-01-11T06:34:34.225Z,17.92
2019-01-11T06:37:02.067Z,22.30
2019-01-11T06:39:29.812Z,24.27
2019-01-11T06:42:04.423Z,22.52
2019-01-11T06:44:32.081Z,22.82
2019-01-11T06:46:59.825Z,22.52
2019-01-11T06:49:27.727Z,21.50
2019-01-11T06:51:55.597Z,25.52
2019-01-11T06:54:23.629Z,22.05
2019-01-11T06:56:55.339Z,26.20
2019-01-11T06:59:23.352Z,28.27
2019-01-11T07:01:54.744Z,23.38
2019-01-11T07:04:22.305Z,21.75
2019-01-11T07:06:50.733Z,22.82
2019-01-11T07:09:18.658Z,21.37
2019-01-11T07:11:48.349Z,22.45
2019-01-11T07:14:16.368Z,20.60
2019-01-11T07:16:45.314Z,20.62
2019-01-11T07:19:13.449Z,18.90
2019-01-11T07:21:41.691Z,25.80
2019-01-11T07:24:09.436Z,19.37
2019-01-11T07:26:39.543Z,15.23
2019-01-11T07:29:07.592Z,21.97
2019-01-11T07:31:36.199Z,26.57
2019-01-11T07:34:04.371Z,29.35
2019-01-11T07:36:41.587Z,39.08
2019-01-11T07:39:29.335Z,41.83
2019-01-11T07:41:59.949Z,34.00
2019-01-11T07:44:28.278Z,28.00
2019-01-11T07:46:56.460Z,23.20
2019-01-11T07:49:25.585Z,28.12
2019-01-11T07:51:53.696Z,30.12
2019-01-11T07:54:22.180Z,28.73
2019-01-11T07:56:52.780Z,23.30
2019-01-11T07:59:22.569Z,25.97
2019-01-11T08:01:50.570Z,28.15
2019-01-11T08:04:18.403Z,27.58
2019-01-11T08:06:46.475Z,27.10
2019-01-11T08:09:14.603Z,24.77
2019-01-11T08:11:42.279Z,19.67
2019-01-11T08:14:10.273Z,21.17
2019-01-11T08:16:43.945Z,22.90
2019-01-11T08:19:11.762Z,23.47
2019-01-11T08:21:39.987Z,17.67
2019-01-11T08:24:08.881Z,20.85
2019-01-11T08:26:40.504Z,13.32
2019-01-11T08:29:09.684Z,14.90
2019-01-11T08:31:37.593Z,13.85
2019-01-11T08:34:06.272Z,13.83
2019-01-11T08:36:35.023Z,15.38
2019-01-11T08:39:04.803Z,14.20
2019-01-11T08:41:32.610Z,14.23
2019-01-11T08:44:00.923Z,15.50
2019-01-11T08:46:28.847Z,20.95
2019-01-11T08:48:57.773Z,15.38
2019-01-11T08:51:25.877Z,17.50
2019-01-11T08:53:53.955Z,14.93
2019-01-11T08:56:21.627Z,13.90
2019-01-11T08:58:50.764Z,14.15
2019-01-11T09:01:18.966Z,15.43
2019-01-11T09:03:47.404Z,12.20
2019-01-11T09:06:15.480Z,16.65
2019-01-11T09:08:46.132Z,11.93
2019-01-11T09:11:14.067Z,16.00
2019-01-11T09:13:43.158Z,14.10
2019-01-11T09:16:10.722Z,15.60
2019-01-11T09:18:44.461Z,14.90
2019-01-11T09:21:13.452Z,16.52
2019-01-11T09:23:41.666Z,22.65
2019-01-11T09:26:10.831Z,14.58
2019-01-11T09:28:40.488Z,14.68
2019-01-11T09:31:09.281Z,19.25
2019-01-11T09:33:37.243Z,20.88
2019-01-11T09:36:05.159Z,19.23
2019-01-11T09:38:33.386Z,23.38
2019-01-11T09:41:06.092Z,28.87
2019-01-11T09:43:36.474Z,20.72
2019-01-11T09:46:05.083Z,22.77
2019-01-11T09:48:32.925Z,19.30
2019-01-11T09:51:00.764Z,26.52
2019-01-11T09:53:28.805Z,18.85
2019-01-11T09:55:57.114Z,27.17
2019-01-11T09:58:24.966Z,21.45
2019-01-11T10:00:58.999Z,26.77
2019-01-11T10:03:23.527Z,29.87
2019-01-11T10:05:51.687Z,24.82
2019-01-11T10:08:20.585Z,23.07
2019-01-11T10:10:49.685Z,25.20
2019-01-11T10:13:17.938Z,32.80
2019-01-11T10:15:46.136Z,25.30
2019-01-11T10:18:14.244Z,26.17
2019-01-11T10:20:47.253Z,21.23
2019-01-11T10:23:18.678Z,21.95
2019-01-11T10:25:46.591Z,20.60
2019-01-11T10:28:14.621Z,20.23
2019-01-11T10:30:45.001Z,19.17
2019-01-11T10:33:13.044Z,20.32
2019-01-11T10:35:48.849Z,19.48
2019-01-11T10:38:16.553Z,17.02
2019-01-11T10:40:44.178Z,24.75
2019-01-11T10:43:12.139Z,20.00
2019-01-11T10:45:40.838Z,21.00
2019-01-11T10:48:08.783Z,19.80
2019-01-11T10:50:36.311Z,21.35
2019-01-11T10:53:04.233Z,21.62
2019-01-11T10:55:31.854Z,22.07
2019-01-11T10:58:01.602Z,23.95
2019-01-11T11:00:29.876Z,26.68
2019-01-11T11:02:58.346Z,22.50
2019-01-11T11:05:26.742Z,20.23
2019-01-11T11:07:54.582Z,27.27
2019-01-11T11:10:23.726Z,20.57
2019-01-11T11:12:53.578Z,21.87
2019-01-11T11:15:21.384Z,25.48
2019-01-11T11:17:49.579Z,27.75
2019-01-11T11:20:19.267Z,20.85
2019-01-11T11:22:47.262Z,23.70
2019-01-11T11:25:17.240Z,26.20
2019-01-11T11:27:48.306Z,25.97
2019-01-11T11:30:18.493Z,21.12
2019-01-11T11:32:54.870Z,19.77
2019-01-11T11:35:23.565Z,22.07
2019-01-11T11:37:52.151Z,23.00
2019-01-11T11:40:27.472Z,26.42
2019-01-11T11:42:58.970Z,18.75
2019-01-11T11:45:27.044Z,20.77
2019-01-11T11:47:54.832Z,23.55
2019-01-11T11:50:22.553Z,21.75
2019-01-11T11:52:55.019Z,25.40
2019-01-11T11:55:24.953Z,28.40
2019-01-11T11:57:52.805Z,29.85
2019-01-11T12:00:26.917Z,21.60
2019-01-11T12:02:54.921Z,24.30
2019-01-11T12:05:22.682Z,28.47
2019-01-11T12:07:50.307Z,25.65
2019-01-11T12:10:18.341Z,33.13
2019-01-11T12:12:46.164Z,27.90
2019-01-11T12:15:14.401Z,25.68
2019-01-11T12:17:42.489Z,22.60
2019-01-11T12:20:30.096Z,24.25
2019-01-11T12:23:01.021Z,29.72
2019-01-11T12:25:28.685Z,23.65
2019-01-11T12:27:57.529Z,23.95
2019-01-11T12:30:25.386Z,22.10
2019-01-11T12:32:53.191Z,26.73
2019-01-11T12:35:21.073Z,26.65
2019-01-11T12:37:48.747Z,26.17
2019-01-11T12:40:16.567Z,26.62
2019-01-11T12:42:44.196Z,22.37
2019-01-11T12:45:13.075Z,30.70
2019-01-11T12:47:42.012Z,20.08
2019-01-11T12:50:21.346Z,20.97
2019-01-11T12:52:49.273Z,22.45
2019-01-11T12:55:19.591Z,23.70
2019-01-11T12:57:47.532Z,29.87
2019-01-11T13:00:16.617Z,25.57
2019-01-11T13:02:44.660Z,29.18
2019-01-11T13:05:18.292Z,25.80
2019-01-11T13:07:47.970Z,23.47
2019-01-11T13:10:16.950Z,23.87
2019-01-11T13:12:44.508Z,27.58
2019-01-11T13:15:14.615Z,26.50
2019-01-11T13:17:42.355Z,34.35
2019-01-11T13:20:11.939Z,31.00
2019-01-11T13:22:40.352Z,34.43
2019-01-11T13:25:08.737Z,44.53
2019-01-11T13:27:36.551Z,37.17
2019-01-11T13:30:09.794Z,35.90
2019-01-11T13:32:39.747Z,35.13
2019-01-11T13:35:07.408Z,37.53
2019-01-11T13:37:35.074Z,40.08
2019-01-11T13:40:07.570Z,45.60
2019-01-11T13:42:36.488Z,36.53
2019-01-11T13:45:05.405Z,36.33
2019-01-11T13:47:33.332Z,35.33
2019-01-11T13:50:03.084Z,31.25
2019-01-11T13:52:30.818Z,26.68
2019-01-11T13:54:58.802Z,29.45
2019-01-11T13:57:26.506Z,26.45
2019-01-11T13:59:54.479Z,33.50
2019-01-11T14:02:22.222Z,21.48
2019-01-11T14:04:50.162Z,23.45
2019-01-11T14:07:17.980Z,29.45
2019-01-11T14:09:45.665Z,21.45
2019-01-11T14:12:14.527Z,26.37
2019-01-11T14:14:42.454Z,27.50
2019-01-11T14:17:10.241Z,27.80
2019-01-11T14:19:38.163Z,28.57
2019-01-11T14:22:06.210Z,28.20
2019-01-11T14:24:34.891Z,25.30
2019-01-11T14:27:03.889Z,26.25
2019-01-11T14:29:31.789Z,22.80
2019-01-11T14:31:59.530Z,19.80
2019-01-11T14:34:27.575Z,23.25
2019-01-11T14:36:55.536Z,26.52
2019-01-11T14:39:23.612Z,23.05
2019-01-11T14:41:52.676Z,23.80
2019-01-11T14:44:20.335Z,21.75
2019-01-11T14:46:50.048Z,23.57
2019-01-11T14:49:17.872Z,24.32
2019-01-11T14:51:47.805Z,26.35
2019-01-11T14:54:15.379Z,26.23
2019-01-11T14:56:43.501Z,22.98
2019-01-11T14:59:11.315Z,23.75
2019-01-11T15:01:40.164Z,18.10
2019-01-11T15:04:07.954Z,20.45
2019-01-11T15:06:35.570Z,24.37
2019-01-11T15:09:06.506Z,20.17
2019-01-11T15:11:34.558Z,29.02
2019-01-11T15:14:04.312Z,25.43
2019-01-11T15:16:32.931Z,23.92
2019-01-11T15:19:03.588Z,29.10
2019-01-11T15:21:31.301Z,22.13
2019-01-11T15:23:59.135Z,26.52
2019-01-11T15:26:26.997Z,24.40
2019-01-11T15:28:54.737Z,25.72
2019-01-11T15:31:22.384Z,27.15
2019-01-11T15:33:55.802Z,31.90
2019-01-11T15:36:23.723Z,25.82
2019-01-11T15:38:53.645Z,37.30
2019-01-11T15:41:21.502Z,29.07
2019-01-11T15:43:49.441Z,36.60
2019-01-11T15:46:17.062Z,32.17
2019-01-11T15:48:49.583Z,23.77
2019-01-11T15:51:20.170Z,27.60
2019-01-11T15:53:54.063Z,28.35
2019-01-11T15:56:25.605Z,26.27
2019-01-11T15:58:53.448Z,28.47
2019-01-11T16:01:23.125Z,30.45
2019-01-11T16:03:52.266Z,30.80
2019-01-11T16:06:39.171Z,29.63
2019-01-11T16:10:17.922Z,33.92
2019-01-11T16:12:56.358Z,39.05
2019-01-11T16:15:47.625Z,40.08
2019-01-11T16:18:22.168Z,24.52
2019-01-11T16:20:50.362Z,28.92
2019-01-11T16:23:18.263Z,25.00
2019-01-11T16:25:46.022Z,23.83
2019-01-11T16:28:14.343Z,30.10
2019-01-11T16:30:45.125Z,42.73
2019-01-11T16:33:12.884Z,32.08
2019-01-11T16:35:40.719Z,36.13
2019-01-11T16:38:09.582Z,35.10
2019-01-11T16:40:41.319Z,32.28
2019-01-11T16:43:09.319Z,25.08
2019-01-11T16:45:37.023Z,32.05
2019-01-11T16:48:05.159Z,26.82
2019-01-11T16:50:32.816Z,37.08
2019-01-11T16:53:00.762Z,28.45
2019-01-11T16:55:28.353Z,29.90
2019-01-11T16:57:56.072Z,22.65
2019-01-11T17:00:24.123Z,22.55
2019-01-11T17:02:51.848Z,24.20
2019-01-11T17:05:20.945Z,23.55
2019-01-11T17:07:50.763Z,26.37
2019-01-11T17:10:18.656Z,19.92
2019-01-11T17:12:48.542Z,22.55
2019-01-11T17:15:19.665Z,17.65
2019-01-11T17:17:48.339Z,24.92
2019-01-11T17:20:17.016Z,24.20
2019-01-11T17:22:52.930Z,31.93
2019-01-11T17:25:17.727Z,24.70
2019-01-11T17:27:52.522Z,24.23
2019-01-11T17:30:20.463Z,27.58
2019-01-11T17:32:49.150Z,19.23
2019-01-11T17:35:17.851Z,23.98
2019-01-11T17:37:45.601Z,22.48
2019-01-11T17:40:14.639Z,25.32
2019-01-11T17:42:42.649Z,24.85
2019-01-11T17:45:14.179Z,26.35
2019-01-11T17:47:42.457Z,26.70
2019-01-11T17:50:15.268Z,25.90
2019-01-11T17:52:44.862Z,27.77
2019-01-11T17:55:12.637Z,25.37
2019-01-11T17:57:40.835Z,24.67
2019-01-11T18:00:13.966Z,26.45
2019-01-11T18:02:42.939Z,24.80
2019-01-11T18:05:11.461Z,26.80
2019-01-11T18:07:39.417Z,28.83
2019-01-11T18:10:08.747Z,23.95
2019-01-11T18:12:38.251Z,22.93
2019-01-11T18:15:09.841Z,24.18
2019-01-11T18:17:38.096Z,21.42
2019-01-11T18:20:10.171Z,21.65
2019-01-11T18:22:39.181Z,23.73
2019-01-11T18:25:09.816Z,18.92
2019-01-11T18:27:37.937Z,24.00
2019-01-11T18:30:07.825Z,23.02
2019-01-11T18:32:35.840Z,26.10
2019-01-11T18:35:04.731Z,26.45
2019-01-11T18:37:32.362Z,19.25
2019-01-11T18:39:59.988Z,27.67
2019-01-11T18:42:29.144Z,23.70
2019-01-11T18:44:56.972Z,28.30
2019-01-11T18:47:24.838Z,25.17
2019-01-11T18:49:53.600Z,23.07
2019-01-11T18:52:21.351Z,22.13
2019-01-11T18:54:49.187Z,27.10
2019-01-11T18:57:18.827Z,20.32
2019-01-11T18:59:46.701Z,22.75
2019-01-11T19:02:14.465Z,24.00
2019-01-11T19:04:43.225Z,26.65
2019-01-11T19:07:13.496Z,26.90
2019-01-11T19:09:41.708Z,32.20
2019-01-11T19:12:14.848Z,33.15
2019-01-11T19:14:44.072Z,25.32
2019-01-11T19:17:12.268Z,30.20
2019-01-11T19:19:39.993Z,29.98
2019-01-11T19:22:09.898Z,30.15
2019-01-11T19:24:40.450Z,28.73
2019-01-11T19:27:08.857Z,28.35
2019-01-11T19:29:36.579Z,33.10
2019-01-11T19:32:06.477Z,28.30
2019-01-11T19:34:34.067Z,27.00
2019-01-11T19:37:02.243Z,31.65
2019-01-11T19:39:30.081Z,27.15
2019-01-11T19:41:58.830Z,30.35
2019-01-11T19:44:27.578Z,32.50
2019-01-11T19:46:55.771Z,31.48
2019-01-11T19:49:27.665Z,35.35
2019-01-11T19:51:55.906Z,33.92
2019-01-11T19:54:25.963Z,37.67
2019-01-11T19:56:54.653Z,33.90
2019-01-11T19:59:24.500Z,35.85
2019-01-11T20:01:55.642Z,39.78
2019-01-11T20:04:55.763Z,34.20
2019-01-11T20:07:32.652Z,40.45
2019-01-11T20:10:05.865Z,27.95
2019-01-11T20:12:37.793Z,36.80
2019-01-11T20:15:40.158Z,31.87
2019-01-11T20:18:39.863Z,55.35
2019-01-11T20:21:10.754Z,45.50
2019-01-11T20:23:44.317Z,36.13
2019-01-11T20:26:19.456Z,37.88
2019-01-11T20:28:47.151Z,32.78
2019-01-11T20:31:17.931Z,37.53
2019-01-11T20:33:45.936Z,38.25
2019-01-11T20:36:13.802Z,42.43
2019-01-11T20:38:42.501Z,31.97
2019-01-11T20:41:10.459Z,30.75
2019-01-11T20:43:39.576Z,37.20
2019-01-11T20:46:08.462Z,34.33
2019-01-11T20:48:38.621Z,30.52
2019-01-11T20:51:06.407Z,36.08
2019-01-11T20:53:34.230Z,31.82
2019-01-11T20:56:02.116Z,30.68
2019-01-11T20:58:30.369Z,28.20
2019-01-11T21:00:58.480Z,35.03
2019-01-11T21:03:26.133Z,32.20
2019-01-11T21:05:54.890Z,32.13
2019-01-11T21:08:22.805Z,35.52
2019-01-11T21:10:51.044Z,39.48
2019-01-11T21:13:18.825Z,29.85
2019-01-11T21:15:48.012Z,31.60
2019-01-11T21:18:15.646Z,33.73
2019-01-11T21:20:43.472Z,34.65
2019-01-11T21:23:12.359Z,30.32
2019-01-11T21:25:45.866Z,30.05
2019-01-11T21:28:14.484Z,34.98
2019-01-11T21:30:43.274Z,30.05
2019-01-11T21:33:11.180Z,27.25
2019-01-11T21:35:39.077Z,32.70
2019-01-11T21:38:07.054Z,32.53
2019-01-11T21:40:38.879Z,30.37
2019-01-11T21:43:06.899Z,28.62
2019-01-11T21:45:35.382Z,31.27
2019-01-11T21:48:03.570Z,34.45
2019-01-11T21:50:39.400Z,30.85
2019-01-11T21:53:08.240Z,29.50
2019-01-11T21:55:37.971Z,33.70
2019-01-11T21:58:05.537Z,31.48
2019-01-11T22:00:44.415Z,29.48
2019-01-11T22:03:20.125Z,36.55
2019-01-11T22:05:48.885Z,32.28
2019-01-11T22:08:16.725Z,30.80
2019-01-11T22:10:53.573Z,32.78
2019-01-11T22:13:21.409Z,31.42
2019-01-11T22:15:49.306Z,35.73
2019-01-11T22:18:17.144Z,26.95
2019-01-11T22:20:44.981Z,32.10
2019-01-11T22:23:14.628Z,27.42
2019-01-11T22:25:45.915Z,33.55
2019-01-11T22:28:13.931Z,27.65
2019-01-11T22:30:47.577Z,31.30
2019-01-11T22:33:15.405Z,32.00
2019-01-11T22:35:43.108Z,34.03
2019-01-11T22:38:11.024Z,35.20
2019-01-11T22:40:38.987Z,28.52
2019-01-11T22:43:06.770Z,34.35
2019-01-11T22:45:34.956Z,33.05
2019-01-11T22:48:03.110Z,30.68
2019-01-11T22:50:31.155Z,32.40
2019-01-11T22:52:59.093Z,25.60
2019-01-11T22:55:26.910Z,25.65
2019-01-11T22:57:54.870Z,28.02
2019-01-11T23:00:48.121Z,33.95
2019-01-11T23:03:21.119Z,35.50
2019-01-11T23:05:50.264Z,26.82
2019-01-11T23:08:20.278Z,35.95
2019-01-11T23:11:34.651Z,32.10
2019-01-11T23:14:03.607Z,29.82
2019-01-11T23:16:46.310Z,28.12
2019-01-11T23:19:20.471Z,26.12
2019-01-11T23:21:48.074Z,26.40
2019-01-11T23:24:17.438Z,29.30
2019-01-11T23:26:47.869Z,29.48
2019-01-11T23:29:19.427Z,27.98
2019-01-11T23:31:47.666Z,29.02
2019-01-11T23:34:15.528Z,26.45
2019-01-11T23:36:45.088Z,23.42
2019-01-11T23:39:14.165Z,29.10
2019-01-11T23:41:46.836Z,28.20
2019-01-11T23:44:14.937Z,25.32
2019-01-11T23:46:42.555Z,28.70
2019-01-11T23:49:13.712Z,26.48
2019-01-11T23:51:41.593Z,28.98
2019-01-11T23:54:09.165Z,23.77
2019-01-11T23:56:36.862Z,28.23
2019-01-11T23:59:09.728Z,29.85
